createdAt,value
2024-02-09T00:00:23.377Z,53.46
2024-02-09T00:02:50.004Z,53.29
2024-02-09T00:05:17.779Z,52.96
2024-02-09T00:07:52.221Z,52.74
2024-02-09T00:10:20.274Z,52.91
2024-02-09T00:12:49.291Z,53.06
2024-02-09T00:15:19.380Z,52.99
2024-02-09T00:17:46.201Z,52.84
2024-02-09T00:20:13.259Z,53.01
2024-02-09T00:22:40.323Z,53.07
2024-02-09T00:25:11.376Z,53.34
2024-02-09T00:27:39.308Z,52.73
2024-02-09T00:30:07.205Z,52.66
2024-02-09T00:32:37.130Z,53.41
2024-02-09T00:35:04.701Z,53.14
2024-02-09T00:37:31.471Z,52.66
2024-02-09T00:39:58.437Z,52.82
2024-02-09T00:42:25.087Z,53.58
2024-02-09T00:44:51.824Z,53.24
2024-02-09T00:47:18.549Z,52.89
2024-02-09T00:49:46.518Z,53.00
2024-02-09T00:52:13.276Z,52.97
2024-02-09T00:54:39.883Z,53.62
2024-02-09T00:57:06.893Z,53.59
2024-02-09T00:59:34.729Z,53.59
2024-02-09T01:02:05.660Z,53.40
2024-02-09T01:04:37.545Z,53.61
2024-02-09T01:07:05.060Z,53.42
2024-02-09T01:09:34.877Z,53.46
2024-02-09T01:12:08.298Z,53.19
2024-02-09T01:14:54.349Z,53.42
2024-02-09T01:17:39.837Z,52.89
2024-02-09T01:20:24.965Z,53.55
2024-02-09T01:23:10.090Z,53.81
2024-02-09T01:25:54.942Z,53.76
2024-02-09T01:28:40.195Z,53.21
2024-02-09T01:31:26.594Z,53.36
2024-02-09T01:34:11.662Z,53.39
2024-02-09T01:36:57.065Z,53.02
2024-02-09T01:39:42.251Z,53.81
2024-02-09T01:42:27.730Z,53.06
2024-02-09T01:45:13.015Z,53.27
2024-02-09T01:47:58.595Z,53.11
2024-02-09T01:50:43.929Z,53.29
2024-02-09T01:53:29.834Z,53.99
2024-02-09T01:56:15.152Z,53.38
2024-02-09T01:59:00.364Z,54.04
2024-02-09T02:01:45.848Z,53.93
2024-02-09T02:04:31.176Z,53.52
2024-02-09T02:07:16.898Z,54.18
2024-02-09T02:10:02.428Z,53.65
2024-02-09T02:12:47.566Z,54.04
2024-02-09T02:15:33.105Z,53.59
2024-02-09T02:18:18.567Z,53.61
2024-02-09T02:21:03.976Z,53.36
2024-02-09T02:23:49.502Z,53.82
2024-02-09T02:26:34.923Z,53.74
2024-02-09T02:29:20.528Z,54.06
2024-02-09T02:32:05.938Z,54.33
2024-02-09T02:34:51.383Z,53.51
2024-02-09T02:37:36.631Z,53.64
2024-02-09T02:40:22.195Z,53.42
2024-02-09T02:42:48.744Z,54.18
2024-02-09T02:45:15.292Z,54.25
2024-02-09T02:47:42.197Z,54.03
2024-02-09T02:50:32.569Z,53.89
2024-02-09T02:53:18.056Z,53.56
2024-02-09T02:56:03.502Z,54.35
2024-02-09T02:58:48.839Z,54.34
2024-02-09T03:01:34.325Z,53.91
2024-02-09T03:04:19.581Z,54.40
2024-02-09T03:07:03.807Z,53.62
2024-02-09T03:09:32.670Z,53.79
2024-02-09T03:12:01.409Z,54.22
2024-02-09T03:14:29.277Z,53.89
2024-02-09T03:16:58.782Z,54.45
2024-02-09T03:19:25.609Z,54.52
2024-02-09T03:21:55.468Z,54.34
2024-02-09T03:24:22.546Z,53.94
2024-02-09T03:26:49.143Z,54.35
2024-02-09T03:29:15.753Z,53.82
2024-02-09T03:31:44.243Z,54.34
2024-02-09T03:34:11.348Z,54.62
2024-02-09T03:36:38.155Z,54.04
2024-02-09T03:39:07.072Z,54.27
2024-02-09T03:41:33.788Z,54.19
2024-02-09T03:44:06.042Z,53.76
2024-02-09T03:46:33.876Z,53.63
2024-02-09T03:49:01.006Z,54.74
2024-02-09T03:51:27.713Z,54.41
2024-02-09T03:53:54.338Z,53.73
2024-02-09T03:56:20.955Z,53.73
2024-02-09T03:58:48.058Z,54.64
2024-02-09T04:01:15.603Z,54.24
2024-02-09T04:03:42.399Z,54.42
2024-02-09T04:06:09.289Z,53.77
2024-02-09T04:08:36.007Z,54.64
2024-02-09T04:11:02.730Z,54.71
2024-02-09T04:13:29.496Z,54.41
2024-02-09T04:15:58.497Z,54.96
2024-02-09T04:18:30.068Z,54.22
2024-02-09T04:20:57.023Z,54.04
2024-02-09T04:23:23.833Z,54.39
2024-02-09T04:25:50.418Z,54.83
2024-02-09T04:28:19.095Z,54.60
2024-02-09T04:30:47.668Z,54.11
2024-02-09T04:33:17.190Z,54.59
2024-02-09T04:35:44.532Z,54.33
2024-02-09T04:38:11.717Z,54.41
2024-02-09T04:40:38.450Z,54.21
2024-02-09T04:43:06.655Z,54.45
2024-02-09T04:45:33.706Z,54.45
2024-02-09T04:48:00.569Z,54.24
2024-02-09T04:50:27.287Z,54.83
2024-02-09T04:52:53.907Z,54.16
2024-02-09T04:55:20.627Z,55.06
2024-02-09T04:57:47.240Z,54.13
2024-02-09T05:00:14.215Z,54.79
2024-02-09T05:02:45.227Z,54.31
2024-02-09T05:05:12.860Z,54.22
2024-02-09T05:07:40.001Z,54.55
2024-02-09T05:10:06.948Z,54.87
2024-02-09T05:12:33.616Z,55.05
2024-02-09T05:15:00.458Z,54.58
2024-02-09T05:17:27.229Z,54.77
2024-02-09T05:19:58.643Z,55.05
2024-02-09T05:22:26.154Z,54.62
2024-02-09T05:24:52.904Z,54.79
2024-02-09T05:27:21.947Z,54.80
2024-02-09T05:29:49.089Z,54.18
2024-02-09T05:32:15.968Z,54.89
2024-02-09T05:34:46.076Z,54.70
2024-02-09T05:37:14.529Z,54.90
2024-02-09T05:39:46.234Z,54.76
2024-02-09T05:42:12.911Z,54.11
2024-02-09T05:44:39.537Z,55.05
2024-02-09T05:47:06.172Z,54.84
2024-02-09T05:49:32.954Z,54.30
2024-02-09T05:51:59.882Z,53.96
2024-02-09T05:54:26.708Z,55.02
2024-02-09T05:56:53.589Z,55.01
2024-02-09T05:59:22.879Z,54.35
2024-02-09T06:01:49.942Z,54.25
2024-02-09T06:04:17.021Z,54.14
2024-02-09T06:06:47.033Z,54.29
2024-02-09T06:09:13.776Z,54.19
2024-02-09T06:11:40.351Z,54.49
2024-02-09T06:14:07.040Z,54.68
2024-02-09T06:16:33.714Z,54.15
2024-02-09T06:19:00.759Z,55.28
2024-02-09T06:21:27.515Z,54.57
2024-02-09T06:23:54.119Z,54.41
2024-02-09T06:26:23.789Z,54.09
2024-02-09T06:28:51.851Z,54.62
2024-02-09T06:31:23.229Z,54.76
2024-02-09T06:33:51.551Z,55.04
2024-02-09T06:36:19.617Z,54.93
2024-02-09T06:38:46.214Z,55.09
2024-02-09T06:41:13.104Z,55.18
2024-02-09T06:43:40.367Z,54.78
2024-02-09T06:46:07.104Z,55.26
2024-02-09T06:48:34.406Z,55.16
2024-02-09T06:51:01.155Z,55.10
2024-02-09T06:53:27.789Z,55.17
2024-02-09T06:55:55.068Z,55.14
2024-02-09T06:58:25.049Z,55.06
2024-02-09T07:00:55.261Z,54.28
2024-02-09T07:03:23.378Z,54.50
2024-02-09T07:05:53.029Z,54.82
2024-02-09T07:08:27.624Z,54.42
2024-02-09T07:10:54.368Z,55.19
2024-02-09T07:13:21.105Z,54.72
2024-02-09T07:15:47.648Z,54.75
2024-02-09T07:18:14.375Z,54.36
2024-02-09T07:20:42.069Z,54.55
2024-02-09T07:23:08.699Z,54.42
2024-02-09T07:25:35.279Z,55.29
2024-02-09T07:28:02.499Z,54.43
2024-02-09T07:30:29.205Z,55.55
2024-02-09T07:32:55.949Z,55.34
2024-02-09T07:35:22.793Z,54.93
2024-02-09T07:37:49.436Z,54.96
2024-02-09T07:40:20.165Z,55.01
2024-02-09T07:42:47.793Z,54.95
2024-02-09T07:45:17.084Z,54.88
2024-02-09T07:47:50.269Z,55.58
2024-02-09T07:50:17.146Z,55.63
2024-02-09T07:52:43.985Z,54.89
2024-02-09T07:55:10.940Z,54.49
2024-02-09T07:57:37.608Z,54.87
2024-02-09T08:00:09.456Z,54.68
2024-02-09T08:02:36.227Z,55.42
2024-02-09T08:05:09.386Z,55.54
2024-02-09T08:07:37.620Z,54.80
2024-02-09T08:10:05.374Z,55.57
2024-02-09T08:12:33.549Z,54.98
2024-02-09T08:15:00.662Z,55.73
2024-02-09T08:17:28.125Z,55.05
2024-02-09T08:19:55.025Z,55.00
2024-02-09T08:22:24.114Z,54.89
2024-02-09T08:24:50.981Z,55.29
2024-02-09T08:27:17.718Z,55.64
2024-02-09T08:29:44.642Z,55.58
2024-02-09T08:32:11.303Z,55.37
2024-02-09T08:34:38.040Z,55.24
2024-02-09T08:37:04.826Z,55.30
2024-02-09T08:39:31.731Z,55.22
2024-02-09T08:41:58.363Z,54.86
2024-02-09T08:44:24.968Z,54.90
2024-02-09T08:46:52.025Z,55.81
2024-02-09T08:49:19.072Z,55.95
2024-02-09T08:51:45.969Z,54.99
2024-02-09T08:54:12.671Z,55.83
2024-02-09T08:56:39.272Z,55.78
2024-02-09T08:59:11.028Z,55.68
2024-02-09T09:01:39.330Z,55.20
2024-02-09T09:04:06.090Z,54.82
2024-02-09T09:06:34.033Z,55.60
2024-02-09T09:09:02.318Z,55.53
2024-02-09T09:11:28.989Z,54.97
2024-02-09T09:13:55.611Z,55.81
2024-02-09T09:16:22.299Z,55.63
2024-02-09T09:18:51.623Z,55.51
2024-02-09T09:21:18.488Z,56.04
2024-02-09T09:23:45.310Z,55.92
2024-02-09T09:26:17.819Z,55.30
2024-02-09T09:28:52.475Z,55.92
2024-02-09T09:31:21.220Z,55.20
2024-02-09T09:33:48.107Z,55.65
2024-02-09T09:36:15.320Z,55.67
2024-02-09T09:38:43.793Z,55.74
2024-02-09T09:41:11.793Z,55.93
2024-02-09T09:43:39.125Z,55.71
2024-02-09T09:46:13.067Z,55.38
2024-02-09T09:48:40.546Z,56.18
2024-02-09T09:51:07.276Z,55.95
2024-02-09T09:53:43.826Z,56.84
2024-02-09T09:56:11.522Z,56.25
2024-02-09T09:58:39.250Z,56.18
2024-02-09T10:01:11.323Z,55.21
2024-02-09T10:03:43.338Z,56.22
2024-02-09T10:06:10.327Z,55.39
2024-02-09T10:08:37.610Z,56.26
2024-02-09T10:11:07.409Z,55.34
2024-02-09T10:13:38.899Z,55.61
2024-02-09T10:16:06.380Z,55.76
2024-02-09T10:18:35.359Z,55.09
2024-02-09T10:21:02.232Z,55.88
2024-02-09T10:23:30.353Z,55.02
2024-02-09T10:26:03.777Z,55.85
2024-02-09T10:28:31.129Z,55.35
2024-02-09T10:31:00.765Z,55.75
2024-02-09T10:33:28.026Z,55.66
2024-02-09T10:35:56.608Z,54.82
2024-02-09T10:38:24.367Z,55.53
2024-02-09T10:40:58.027Z,55.50
2024-02-09T10:43:25.113Z,54.99
2024-02-09T10:45:54.508Z,55.42
2024-02-09T10:48:36.212Z,55.63
2024-02-09T10:51:07.065Z,55.76
2024-02-09T10:53:36.920Z,54.76
2024-02-09T10:56:05.177Z,55.40
2024-02-09T10:58:35.693Z,55.54
2024-02-09T11:01:05.690Z,54.87
2024-02-09T11:03:35.746Z,55.19
2024-02-09T11:06:05.529Z,54.95
2024-02-09T11:08:34.516Z,54.38
2024-02-09T11:11:05.618Z,55.19
2024-02-09T11:13:32.473Z,55.25
2024-02-09T11:16:00.682Z,55.36
2024-02-09T11:18:34.243Z,55.74
2024-02-09T11:21:08.973Z,55.77
2024-02-09T11:23:42.983Z,55.52
2024-02-09T11:26:15.091Z,55.57
2024-02-09T11:28:42.095Z,55.80
2024-02-09T11:31:13.831Z,55.21
2024-02-09T11:33:44.456Z,55.10
2024-02-09T11:36:11.089Z,54.85
2024-02-09T11:38:37.631Z,55.17
2024-02-09T11:41:04.407Z,55.34
2024-02-09T11:43:32.590Z,55.53
2024-02-09T11:45:59.187Z,55.79
2024-02-09T11:48:26.084Z,55.68
2024-02-09T11:50:58.334Z,56.27
2024-02-09T11:53:26.438Z,56.41
2024-02-09T11:55:54.194Z,56.57
2024-02-09T11:58:21.087Z,56.49
2024-02-09T12:00:51.721Z,56.78
2024-02-09T12:03:18.564Z,58.15
2024-02-09T12:05:47.401Z,57.79
2024-02-09T12:08:18.423Z,57.40
2024-02-09T12:10:45.796Z,57.53
2024-02-09T12:13:12.801Z,57.98
2024-02-09T12:15:39.762Z,58.08
2024-02-09T12:18:06.509Z,58.76
2024-02-09T12:20:33.873Z,58.21
2024-02-09T12:23:05.310Z,57.85
2024-02-09T12:25:39.410Z,57.85
2024-02-09T12:28:11.265Z,58.33
2024-02-09T12:30:38.547Z,57.79
2024-02-09T12:33:06.266Z,58.89
2024-02-09T12:35:33.040Z,58.23
2024-02-09T12:37:59.706Z,58.05
2024-02-09T12:40:26.814Z,57.94
2024-02-09T12:42:56.774Z,58.72
2024-02-09T12:45:29.573Z,58.14
2024-02-09T12:47:58.493Z,58.25
2024-02-09T12:50:29.081Z,57.93
2024-02-09T12:52:56.374Z,58.76
2024-02-09T12:55:25.169Z,58.99
2024-02-09T12:57:55.790Z,58.68
2024-02-09T13:00:25.637Z,58.33
2024-02-09T13:02:52.411Z,58.58
2024-02-09T13:07:45.597Z,57.46
2024-02-09T13:10:13.990Z,58.39
2024-02-09T13:12:40.777Z,58.38
2024-02-09T13:15:11.844Z,57.17
2024-02-09T13:17:40.709Z,57.65
2024-02-09T13:20:09.836Z,57.97
2024-02-09T13:22:39.777Z,58.08
2024-02-09T13:25:07.111Z,57.68
2024-02-09T13:27:33.980Z,58.75
2024-02-09T13:30:00.777Z,57.62
2024-02-09T13:32:33.066Z,57.96
2024-02-09T13:35:00.242Z,57.85
2024-02-09T13:37:27.127Z,58.03
2024-02-09T13:39:54.442Z,57.35
2024-02-09T13:42:22.317Z,57.81
2024-02-09T13:44:49.730Z,57.50
2024-02-09T13:47:16.363Z,57.33
2024-02-09T13:49:43.076Z,57.66
2024-02-09T13:52:09.898Z,57.48
2024-02-09T13:54:36.576Z,57.86
2024-02-09T13:57:03.330Z,57.53
2024-02-09T13:59:29.897Z,57.00
2024-02-09T14:01:56.648Z,57.14
2024-02-09T14:04:23.955Z,56.83
2024-02-09T14:06:50.699Z,57.29
2024-02-09T14:09:17.386Z,57.18
2024-02-09T14:11:45.971Z,56.78
2024-02-09T14:14:13.475Z,56.87
2024-02-09T14:16:40.252Z,56.63
2024-02-09T14:19:07.051Z,56.86
2024-02-09T14:21:33.765Z,56.70
2024-02-09T14:24:01.004Z,56.53
2024-02-09T14:26:27.585Z,56.15
2024-02-09T14:28:58.324Z,56.25
2024-02-09T14:31:25.420Z,56.53
2024-02-09T14:33:52.179Z,56.01
2024-02-09T14:36:19.005Z,56.58
2024-02-09T14:38:46.009Z,56.25
2024-02-09T14:41:12.626Z,56.88
2024-02-09T14:43:41.547Z,56.58
2024-02-09T14:46:11.001Z,56.63
2024-02-09T14:48:38.490Z,56.44
2024-02-09T14:51:05.454Z,56.76
2024-02-09T14:53:33.906Z,56.93
2024-02-09T14:56:02.064Z,56.50
2024-02-09T14:58:28.757Z,56.48
2024-02-09T15:00:55.946Z,56.62
2024-02-09T15:03:24.044Z,56.59
2024-02-09T15:05:50.975Z,56.45
2024-02-09T15:08:18.932Z,56.95
2024-02-09T15:10:45.612Z,56.76
2024-02-09T15:13:14.801Z,56.38
2024-02-09T15:15:43.915Z,56.24
2024-02-09T15:18:10.727Z,56.50
2024-02-09T15:20:38.537Z,56.68
2024-02-09T15:23:06.354Z,56.50
2024-02-09T15:25:34.896Z,56.99
2024-02-09T15:28:02.354Z,56.94
2024-02-09T15:30:29.084Z,56.52
2024-02-09T15:32:55.917Z,56.53
2024-02-09T15:35:22.771Z,56.43
2024-02-09T15:37:49.594Z,56.80
2024-02-09T15:40:18.258Z,56.44
2024-02-09T15:42:46.363Z,56.59
2024-02-09T15:45:14.237Z,56.49
2024-02-09T15:47:43.804Z,56.64
2024-02-09T15:50:10.613Z,56.64
2024-02-09T15:52:37.251Z,56.67
2024-02-09T15:55:03.955Z,56.45
2024-02-09T15:57:30.625Z,56.60
2024-02-09T15:59:57.329Z,56.87
2024-02-09T16:02:24.177Z,56.73
2024-02-09T16:04:51.083Z,56.65
2024-02-09T16:07:17.868Z,56.46
2024-02-09T16:09:47.107Z,56.32
2024-02-09T16:12:14.069Z,56.71
2024-02-09T16:14:43.093Z,56.87
2024-02-09T16:17:09.920Z,57.05
2024-02-09T16:19:36.835Z,56.62
2024-02-09T16:22:03.686Z,56.59
2024-02-09T16:24:30.326Z,56.59
2024-02-09T16:26:56.970Z,56.44
2024-02-09T16:29:24.352Z,56.21
2024-02-09T16:31:51.921Z,56.04
2024-02-09T16:34:18.710Z,56.06
2024-02-09T16:36:45.382Z,55.84
2024-02-09T16:39:14.524Z,55.71
2024-02-09T16:41:41.773Z,55.40
2024-02-09T16:44:09.373Z,55.72
2024-02-09T16:46:36.581Z,55.41
2024-02-09T16:49:05.077Z,55.35
2024-02-09T16:51:31.928Z,55.23
2024-02-09T16:54:00.189Z,55.33
2024-02-09T16:56:27.028Z,55.11
2024-02-09T16:58:53.726Z,55.12
2024-02-09T17:01:22.402Z,55.27
2024-02-09T17:03:49.249Z,54.87
2024-02-09T17:06:16.242Z,54.65
2024-02-09T17:08:42.905Z,54.92
2024-02-09T17:11:09.742Z,54.08
2024-02-09T17:13:36.921Z,54.54
2024-02-09T17:16:05.086Z,54.78
2024-02-09T17:18:31.964Z,54.92
2024-02-09T17:20:58.592Z,54.84
2024-02-09T17:23:25.160Z,54.68
2024-02-09T17:25:52.917Z,54.75
2024-02-09T17:28:19.704Z,54.73
2024-02-09T17:30:48.203Z,54.94
2024-02-09T17:33:15.924Z,54.17
2024-02-09T17:35:42.767Z,54.31
2024-02-09T17:38:10.312Z,54.65
2024-02-09T17:40:37.485Z,54.32
2024-02-09T17:43:04.221Z,54.16
2024-02-09T17:45:31.304Z,54.60
2024-02-09T17:47:58.086Z,54.31
2024-02-09T17:50:24.714Z,54.19
2024-02-09T17:52:53.440Z,54.32
2024-02-09T17:55:20.759Z,54.16
2024-02-09T17:57:50.824Z,54.19
2024-02-09T18:00:18.476Z,54.06
2024-02-09T18:02:45.009Z,54.04
2024-02-09T18:05:12.329Z,53.80
2024-02-09T18:07:40.000Z,54.12
2024-02-09T18:10:07.135Z,54.17
2024-02-09T18:12:33.949Z,53.57
2024-02-09T18:15:00.737Z,54.20
2024-02-09T18:17:27.409Z,54.12
2024-02-09T18:19:54.180Z,54.13
2024-02-09T18:22:20.887Z,53.87
2024-02-09T18:24:50.318Z,53.77
2024-02-09T18:27:16.979Z,54.00
2024-02-09T18:29:43.582Z,53.82
2024-02-09T18:32:10.295Z,53.85
2024-02-09T18:34:37.363Z,53.66
2024-02-09T18:37:04.585Z,54.25
2024-02-09T18:39:31.437Z,53.92
2024-02-09T18:41:59.560Z,53.96
2024-02-09T18:44:27.933Z,53.72
2024-02-09T18:46:56.814Z,53.69
2024-02-09T18:49:25.097Z,53.43
2024-02-09T18:51:52.688Z,53.94
2024-02-09T18:54:19.455Z,53.90
2024-02-09T18:56:46.100Z,53.63
2024-02-09T18:59:12.793Z,53.70
2024-02-09T19:01:44.010Z,53.59
2024-02-09T19:04:14.134Z,53.97
2024-02-09T19:06:41.994Z,53.56
2024-02-09T19:09:10.319Z,53.55
2024-02-09T19:11:37.774Z,53.65
2024-02-09T19:14:05.038Z,53.96
2024-02-09T19:16:33.339Z,53.59
2024-02-09T19:19:02.716Z,53.60
2024-02-09T19:21:29.898Z,53.72
2024-02-09T19:23:56.571Z,53.65
2024-02-09T19:26:23.728Z,53.37
2024-02-09T19:28:52.427Z,53.64
2024-02-09T19:31:19.574Z,53.74
2024-02-09T19:33:49.442Z,53.54
2024-02-09T19:36:21.416Z,53.25
2024-02-09T19:38:48.814Z,53.88
2024-02-09T19:41:19.113Z,53.97
2024-02-09T19:43:46.782Z,53.88
2024-02-09T19:46:13.640Z,53.65
2024-02-09T19:48:41.539Z,53.85
2024-02-09T19:51:16.330Z,53.65
2024-02-09T19:53:43.481Z,53.65
2024-02-09T19:56:10.849Z,53.51
2024-02-09T19:58:37.695Z,53.58
2024-02-09T20:01:08.966Z,53.51
2024-02-09T20:03:35.782Z,53.53
2024-02-09T20:06:05.676Z,53.83
2024-02-09T20:08:33.049Z,53.28
2024-02-09T20:11:00.518Z,53.47
2024-02-09T20:13:27.781Z,53.46
2024-02-09T20:15:57.874Z,53.51
2024-02-09T20:18:26.787Z,53.35
2024-02-09T20:20:53.572Z,53.48
2024-02-09T20:23:20.186Z,53.30
2024-02-09T20:25:47.597Z,53.36
2024-02-09T20:28:14.366Z,53.41
2024-02-09T20:30:41.385Z,53.59
2024-02-09T20:33:08.810Z,53.69
2024-02-09T20:35:35.694Z,53.60
2024-02-09T20:38:06.718Z,53.29
2024-02-09T20:40:34.422Z,53.20
2024-02-09T20:43:01.756Z,53.25
2024-02-09T20:45:30.428Z,53.76
2024-02-09T20:47:59.084Z,53.95
2024-02-09T20:50:32.145Z,54.62
2024-02-09T20:53:03.096Z,54.41
2024-02-09T20:55:33.615Z,54.62
2024-02-09T20:58:04.309Z,54.59
2024-02-09T21:00:36.182Z,55.01
2024-02-09T21:03:06.150Z,55.06
2024-02-09T21:05:35.621Z,54.79
2024-02-09T21:08:06.502Z,54.65
2024-02-09T21:10:33.219Z,55.29
2024-02-09T21:13:02.756Z,55.13
2024-02-09T21:15:31.780Z,55.11
2024-02-09T21:17:59.617Z,55.31
2024-02-09T21:20:27.404Z,54.70
2024-02-09T21:22:57.838Z,54.84
2024-02-09T21:25:24.927Z,55.32
2024-02-09T21:27:51.940Z,54.91
2024-02-09T21:30:23.637Z,55.46
2024-02-09T21:32:55.248Z,55.13
2024-02-09T21:35:26.162Z,55.84
2024-02-09T21:37:52.919Z,55.18
2024-02-09T21:40:19.953Z,55.07
2024-02-09T21:42:49.397Z,55.11
2024-02-09T21:45:16.004Z,55.16
2024-02-09T21:47:42.689Z,55.10
2024-02-09T21:50:09.587Z,55.47
2024-02-09T21:52:38.400Z,55.61
2024-02-09T21:55:07.866Z,54.93
2024-02-09T21:57:35.642Z,54.98
2024-02-09T22:00:08.899Z,54.55
2024-02-09T22:02:35.501Z,55.00
2024-02-09T22:05:02.240Z,54.98
2024-02-09T22:07:29.276Z,55.07
2024-02-09T22:09:57.267Z,54.87
2024-02-09T22:12:27.462Z,54.65
2024-02-09T22:14:58.327Z,55.01
2024-02-09T22:17:38.552Z,54.85
2024-02-09T22:20:06.552Z,55.29
2024-02-09T22:22:33.812Z,54.84
2024-02-09T22:25:02.331Z,54.93
2024-02-09T22:27:29.549Z,54.80
2024-02-09T22:29:58.407Z,54.56
2024-02-09T22:32:25.078Z,54.30
2024-02-09T22:34:52.004Z,54.24
2024-02-09T22:37:18.960Z,54.39
2024-02-09T22:39:46.450Z,54.57
2024-02-09T22:42:13.884Z,54.35
2024-02-09T22:44:43.585Z,53.98
2024-02-09T22:47:10.571Z,54.29
2024-02-09T22:49:37.338Z,54.09
2024-02-09T22:52:04.287Z,54.39
2024-02-09T22:54:30.890Z,54.17
2024-02-09T22:56:57.541Z,54.24
2024-02-09T22:59:24.096Z,53.74
2024-02-09T23:01:53.313Z,54.00
2024-02-09T23:04:22.544Z,54.12
2024-02-09T23:06:49.936Z,53.94
2024-02-09T23:09:17.558Z,54.15
2024-02-09T23:11:47.883Z,54.00
2024-02-09T23:14:19.391Z,54.13
2024-02-09T23:16:48.220Z,54.00
2024-02-09T23:19:19.971Z,53.92
2024-02-09T23:21:50.879Z,54.30
2024-02-09T23:24:22.137Z,53.93
2024-02-09T23:26:53.153Z,54.30
2024-02-09T23:29:22.254Z,53.92
2024-02-09T23:31:49.207Z,54.21
2024-02-09T23:34:19.587Z,54.37
2024-02-09T23:36:48.027Z,54.16
2024-02-09T23:39:15.618Z,54.03
2024-02-09T23:41:42.246Z,54.02
2024-02-09T23:44:08.801Z,54.29
2024-02-09T23:46:35.766Z,53.99
2024-02-09T23:49:02.935Z,54.03
2024-02-09T23:51:29.644Z,53.92
2024-02-09T23:53:56.194Z,54.23
2024-02-09T23:56:23.411Z,54.29
2024-02-09T23:58:53.368Z,54.13
